Time;durP1;ratioP1;P1;durP2;ratioP2;P2;SDS_P1;SDS_P2;PMS_P1;PMS_P2;Temp;Humidity;BMP_temperature;BMP_pressure;BME280_temperature;BME280_humidity;BME280_pressure;Samples;Min_cycle;Max_cycle;Signal;HPM_P1;HPM_P2
2022/12/23 00:00:12;;;;;;;20.38;6.88;;;;;;;9.52;100.00;99981.25;5025933;28;20498;-72
2022/12/23 00:02:38;;;;;;;18.48;7.25;;;;;;;9.52;100.00;99983.81;5023520;28;20046;-72
2022/12/23 00:05:04;;;;;;;20.88;7.28;;;;;;;9.51;100.00;99982.13;5024233;28;20034;-71
2022/12/23 00:07:30;;;;;;;13.60;5.95;;;;;;;9.50;100.00;99981.25;5023556;28;20041;-71
2022/12/23 00:09:55;;;;;;;17.95;6.88;;;;;;;9.50;100.00;99985.56;5023667;28;20502;-72
2022/12/23 00:15:06;;;;;;;14.75;6.50;;;;;;;9.49;100.00;99979.56;5021661;28;20105;-72
2022/12/23 00:17:37;;;;;;;14.73;5.35;;;;;;;9.50;100.00;99980.41;5025499;28;20050;-72
2022/12/23 00:20:04;;;;;;;17.60;6.90;;;;;;;9.48;100.00;99982.16;5030198;28;20040;-72
2022/12/23 00:25:15;;;;;;;16.38;6.68;;;;;;;9.45;100.00;99984.78;5021792;28;20040;-72
2022/12/23 00:27:40;;;;;;;20.50;5.88;;;;;;;9.45;100.00;99987.38;5020465;28;20034;-72
2022/12/23 00:30:09;;;;;;;16.10;5.53;;;;;;;9.46;100.00;99991.66;5022810;28;20398;-72
2022/12/23 00:32:35;;;;;;;16.75;5.90;;;;;;;9.46;100.00;99987.38;5025805;28;20048;-72
2022/12/23 00:35:00;;;;;;;14.40;5.90;;;;;;;9.44;100.00;99989.09;5020472;28;20398;-72
2022/12/23 00:37:28;;;;;;;16.55;6.07;;;;;;;9.42;100.00;99997.75;5024215;28;20064;-72
2022/12/23 00:42:55;;;;;;;10.52;5.18;;;;;;;9.42;100.00;100005.47;5028239;28;20049;-72
2022/12/23 00:45:20;;;;;;;19.25;5.90;;;;;;;9.44;100.00;100007.16;5024779;28;20018;-72
2022/12/23 00:50:32;;;;;;;14.07;5.38;;;;;;;9.47;100.00;100008.81;5018923;28;20053;-72
2022/12/23 00:52:58;;;;;;;18.45;5.95;;;;;;;9.48;100.00;100011.41;5020028;28;20183;-72
2022/12/23 00:55:24;;;;;;;10.77;4.78;;;;;;;9.49;100.00;100001.94;5018793;28;20128;-72
2022/12/23 00:57:50;;;;;;;14.55;4.95;;;;;;;9.48;100.00;100010.53;5020556;28;20037;-72
2022/12/23 01:00:16;;;;;;;16.10;6.72;;;;;;;9.45;100.00;100002.84;5028291;28;20036;-72
2022/12/23 01:05:38;;;;;;;11.93;5.45;;;;;;;9.43;100.00;100013.22;5022167;28;20087;-72
2022/12/23 01:08:04;;;;;;;12.43;5.03;;;;;;;9.43;100.00;100022.66;5021245;28;20034;-72
2022/12/23 01:10:29;;;;;;;13.38;4.90;;;;;;;9.42;100.00;100019.22;5025421;28;20042;-72
2022/12/23 01:12:55;;;;;;;14.68;4.63;;;;;;;9.42;100.00;100021.81;5020391;28;20087;-72
2022/12/23 01:15:20;;;;;;;14.27;5.30;;;;;;;9.44;100.00;100029.50;5023185;28;20140;-72
2022/12/23 01:17:46;;;;;;;10.07;4.28;;;;;;;9.43;100.00;100043.31;5023586;28;20072;-72
2022/12/23 01:20:12;;;;;;;9.77;4.13;;;;;;;9.42;100.00;100034.72;5030559;28;20536;-72
2022/12/23 01:22:37;;;;;;;9.40;4.03;;;;;;;9.44;100.00;100045.84;5029993;28;20608;-72
2022/12/23 01:25:03;;;;;;;7.30;2.97;;;;;;;9.46;100.00;100053.56;5012060;28;20041;-72
2022/12/23 01:27:28;;;;;;;6.53;3.45;;;;;;;9.47;100.00;100056.13;5028263;28;20559;-72
2022/12/23 01:29:54;;;;;;;6.40;3.40;;;;;;;9.48;100.00;100056.97;5024061;28;20058;-72
2022/12/23 01:32:22;;;;;;;8.85;3.28;;;;;;;9.47;100.00;100056.13;5020572;28;20061;-72
2022/12/23 01:34:47;;;;;;;8.57;3.72;;;;;;;9.46;100.00;100054.44;5014629;28;20040;-72
2022/12/23 01:37:13;;;;;;;2.88;2.40;;;;;;;9.44;100.00;100055.31;5016894;28;20063;-72
2022/12/23 01:39:38;;;;;;;6.90;2.92;;;;;;;9.42;100.00;100051.91;5021932;28;20036;-72
2022/12/23 01:45:01;;;;;;;7.28;2.30;;;;;;;9.40;100.00;100057.09;5019075;28;20548;-72
2022/12/23 01:47:48;;;;;;;6.38;2.85;;;;;;;9.40;100.00;100062.25;5021046;28;20065;-71
2022/12/23 01:50:24;;;;;;;5.75;2.90;;;;;;;9.41;100.00;100068.25;5019836;28;20676;-72
2022/12/23 01:53:17;;;;;;;5.70;2.90;;;;;;;9.43;100.00;100074.25;5021783;28;20037;-72
2022/12/23 01:55:55;;;;;;;3.75;2.30;;;;;;;9.43;100.00;100075.13;5019978;28;20037;-72
2022/12/23 01:58:41;;;;;;;4.05;2.05;;;;;;;9.44;100.00;100078.53;5022596;28;20048;-72
2022/12/23 02:03:56;;;;;;;2.75;1.52;;;;;;;9.43;100.00;100076.84;5025977;28;20457;-72
2022/12/23 02:09:19;;;;;;;2.95;1.30;;;;;;;9.46;100.00;100095.69;5023972;28;20072;-71
2022/12/23 02:12:21;;;;;;;5.10;0.97;;;;;;;9.51;100.00;100103.34;5021041;28;20037;-72
2022/12/23 02:18:09;;;;;;;1.10;0.80;;;;;;;9.56;100.00;100097.25;5026495;28;20041;-72
2022/12/23 02:20:49;;;;;;;1.27;0.85;;;;;;;9.56;100.00;100097.25;5015978;28;20041;-71
2022/12/23 02:23:46;;;;;;;1.67;1.15;;;;;;;9.61;100.00;100094.66;5016412;28;20037;-71
2022/12/23 02:26:36;;;;;;;1.55;0.85;;;;;;;9.63;100.00;100110.97;5025969;28;20064;-72
2022/12/23 02:29:29;;;;;;;5.97;1.20;;;;;;;9.62;100.00;100097.19;5025040;28;20034;-72
2022/12/23 02:32:16;;;;;;;1.55;0.88;;;;;;;9.62;100.00;100098.91;5025201;28;20056;-72
2022/12/23 02:35:24;;;;;;;5.30;0.80;;;;;;;9.64;100.00;100107.50;5029175;28;20124;-72
2022/12/23 02:37:53;;;;;;;3.55;1.10;;;;;;;9.63;100.00;100110.97;5026024;28;20049;-72
2022/12/23 02:40:44;;;;;;;3.85;0.93;;;;;;;9.62;100.00;100116.97;5023873;28;20041;-72
2022/12/23 02:43:12;;;;;;;4.40;0.93;;;;;;;9.66;100.00;100116.06;5022735;28;20705;-72
2022/12/23 02:45:48;;;;;;;2.03;0.98;;;;;;;9.71;100.00;100118.56;5019344;28;20033;-72
2022/12/23 02:48:26;;;;;;;3.88;1.00;;;;;;;9.70;100.00;100116.88;5022947;28;20056;-72
2022/12/23 02:50:55;;;;;;;3.33;0.90;;;;;;;9.68;100.00;100128.06;5030028;28;20049;-72
2022/12/23 02:53:29;;;;;;;4.57;1.23;;;;;;;9.70;100.00;100125.47;5027011;28;20119;-72
2022/12/23 02:55:56;;;;;;;3.08;0.70;;;;;;;9.70;100.00;100127.19;5023655;28;20033;-71
2022/12/23 02:58:27;;;;;;;2.65;0.63;;;;;;;9.71;100.00;100121.16;5022473;28;20099;-72
2022/12/23 03:00:54;;;;;;;0.95;0.80;;;;;;;9.71;100.00;100131.47;5030720;28;20033;-72
2022/12/23 03:03:20;;;;;;;3.63;0.90;;;;;;;9.73;100.00;100138.34;5037349;28;20118;-73
2022/12/23 03:05:48;;;;;;;3.45;0.98;;;;;;;9.74;100.00;100134.88;5020644;28;20926;-72
2022/12/23 03:08:19;;;;;;;4.40;1.20;;;;;;;9.78;100.00;100143.41;5031984;28;20049;-72
2022/12/23 03:11:10;;;;;;;2.72;1.20;;;;;;;9.82;100.00;100152.84;5026443;28;20045;-72
2022/12/23 03:14:13;;;;;;;2.08;1.27;;;;;;;9.88;100.00;100153.56;5032226;28;20037;-72
2022/12/23 03:16:51;;;;;;;3.67;1.90;;;;;;;9.90;100.00;100153.56;5030528;28;20383;-72
2022/12/23 03:19:42;;;;;;;6.63;1.90;;;;;;;9.92;100.00;100157.81;5027389;28;20033;-72
2022/12/23 03:22:17;;;;;;;4.65;1.58;;;;;;;9.95;100.00;100162.94;5014353;28;20034;-72
2022/12/23 03:25:02;;;;;;;6.28;1.95;;;;;;;9.97;100.00;100166.34;5027458;28;20449;-71
2022/12/23 03:28:03;;;;;;;4.43;1.88;;;;;;;9.98;100.00;100159.44;5023557;28;20034;-72
2022/12/23 03:30:31;;;;;;;5.50;1.75;;;;;;;9.95;100.00;100156.91;5004860;28;20037;-71
2022/12/23 03:33:11;;;;;;;6.85;2.08;;;;;;;9.97;98.65;100168.09;5029518;28;20082;-72
2022/12/23 03:35:42;;;;;;;6.60;1.90;;;;;;;10.04;97.81;100161.94;5025739;28;20042;-72
2022/12/23 03:38:10;;;;;;;7.40;1.92;;;;;;;10.07;96.69;100162.75;5024412;28;20169;-72
2022/12/23 03:40:40;;;;;;;5.35;1.85;;;;;;;10.13;96.28;100175.56;5026303;28;20127;-72
2022/12/23 03:43:12;;;;;;;8.68;2.35;;;;;;;10.19;95.33;100174.59;5022626;28;20095;-72
2022/12/23 03:45:44;;;;;;;7.28;2.47;;;;;;;10.22;95.01;100177.13;5024586;28;20033;-72
2022/12/23 03:48:23;;;;;;;6.68;2.38;;;;;;;10.27;94.67;100182.25;5025078;28;20406;-72
2022/12/23 03:50:54;;;;;;;7.53;1.98;;;;;;;10.24;94.04;100183.13;5024404;28;20037;-71
2022/12/23 03:53:42;;;;;;;7.93;2.05;;;;;;;10.23;94.68;100186.59;5023085;28;20049;-72
2022/12/23 03:56:25;;;;;;;8.13;2.05;;;;;;;10.20;94.79;100184.91;5023560;28;20079;-71
2022/12/23 03:59:00;;;;;;;4.80;2.17;;;;;;;10.15;95.70;100191.00;5025593;28;20043;-72
2022/12/23 04:01:53;;;;;;;4.15;1.80;;;;;;;10.13;96.08;100191.06;5018182;28;20380;-72
2022/12/23 04:04:34;;;;;;;8.20;2.40;;;;;;;10.12;96.85;100189.34;5025720;28;20045;-71
2022/12/23 04:07:15;;;;;;;6.80;2.28;;;;;;;10.12;97.36;100181.59;5034719;28;20041;-71
2022/12/23 04:09:42;;;;;;;9.77;2.20;;;;;;;10.12;97.71;100185.91;5029531;28;20041;-72
2022/12/23 04:12:07;;;;;;;6.10;2.72;;;;;;;10.09;98.21;100181.63;5035579;28;21681;-72
2022/12/23 04:14:34;;;;;;;8.85;3.05;;;;;;;10.11;98.99;100179.03;5027532;28;20041;-72
2022/12/23 04:17:00;;;;;;;9.30;2.58;;;;;;;10.10;98.67;100179.91;5032306;28;20106;-72
2022/12/23 04:19:26;;;;;;;7.18;2.80;;;;;;;10.07;98.63;100172.22;5026054;28;20046;-71
2022/12/23 04:21:55;;;;;;;10.45;2.88;;;;;;;10.03;98.94;100171.41;5027341;28;20096;-71
2022/12/23 04:24:21;;;;;;;9.73;3.13;;;;;;;10.00;100.00;100176.63;5030324;28;20076;-72
2022/12/23 04:26:46;;;;;;;8.95;3.03;;;;;;;9.98;100.00;100186.13;5026139;28;20065;-72
2022/12/23 04:29:11;;;;;;;7.00;3.00;;;;;;;9.99;100.00;100181.81;5034983;28;20034;-72
2022/12/23 04:31:37;;;;;;;8.93;2.90;;;;;;;9.98;100.00;100178.38;5026401;28;20561;-72
2022/12/23 04:34:02;;;;;;;9.60;2.92;;;;;;;9.97;100.00;100168.09;5030993;28;20090;-72
2022/12/23 04:36:28;;;;;;;6.60;3.15;;;;;;;9.94;100.00;100165.56;5032757;28;20458;-71
2022/12/23 04:38:53;;;;;;;10.90;3.17;;;;;;;9.92;100.00;100160.41;5037855;28;20061;-72
2022/12/23 04:41:18;;;;;;;10.75;3.03;;;;;;;9.93;100.00;100159.53;5040396;28;20040;-72
2022/12/23 04:43:44;;;;;;;8.57;2.67;;;;;;;9.91;100.00;100169.00;5035504;28;20033;-72
2022/12/23 04:46:09;;;;;;;9.32;3.17;;;;;;;9.93;100.00;100169.00;5031217;28;20512;-72
2022/12/23 04:48:35;;;;;;;11.07;3.40;;;;;;;9.94;100.00;100173.31;5027217;28;20033;-71
2022/12/23 04:51:01;;;;;;;10.23;3.70;;;;;;;9.93;100.00;100171.59;5033497;28;20375;-72
2022/12/23 04:53:27;;;;;;;10.68;3.30;;;;;;;9.94;100.00;100176.72;5031996;28;20060;-72
2022/12/23 04:55:52;;;;;;;9.15;2.97;;;;;;;9.95;100.00;100174.97;5036028;28;20674;-72
2022/12/23 04:58:20;;;;;;;9.65;3.28;;;;;;;9.96;100.00;100174.97;5026964;28;20117;-71
2022/12/23 05:00:46;;;;;;;8.50;2.88;;;;;;;9.95;99.64;100172.41;5032798;28;20041;-71
2022/12/23 05:03:11;;;;;;;9.07;2.53;;;;;;;9.93;99.60;100180.19;5036073;28;20029;-72
2022/12/23 05:05:42;;;;;;;12.73;3.47;;;;;;;9.87;98.85;100172.53;5028399;28;20683;-72
2022/12/23 05:08:08;;;;;;;7.75;2.55;;;;;;;9.85;99.36;100170.84;5028820;28;20041;-72
2022/12/23 05:10:33;;;;;;;6.20;2.33;;;;;;;9.87;98.96;100169.09;5031095;28;20057;-72
2022/12/23 05:12:59;;;;;;;7.53;2.30;;;;;;;9.86;98.89;100172.53;5035590;28;20502;-72
2022/12/23 05:15:24;;;;;;;11.35;2.83;;;;;;;9.85;99.00;100169.09;5031319;28;20151;-72
2022/12/23 05:17:49;;;;;;;6.80;2.28;;;;;;;9.86;97.89;100163.06;5033901;28;20048;-72
2022/12/23 05:20:15;;;;;;;5.28;1.77;;;;;;;9.87;97.92;100164.78;5037160;28;20126;-72
2022/12/23 05:22:40;;;;;;;7.75;2.10;;;;;;;9.84;97.34;100156.22;5023671;28;20527;-72
2022/12/23 05:25:06;;;;;;;4.63;1.70;;;;;;;9.85;97.03;100163.09;5026707;28;20041;-72
2022/12/23 05:27:31;;;;;;;6.65;1.73;;;;;;;9.84;96.24;100158.81;5025184;28;20531;-72
2022/12/23 05:29:57;;;;;;;6.35;1.80;;;;;;;9.76;96.93;100166.69;5023375;28;20602;-72
2022/12/23 05:32:22;;;;;;;5.53;1.85;;;;;;;9.69;97.13;100172.78;5024632;28;20038;-72
2022/12/23 05:34:48;;;;;;;8.75;2.17;;;;;;;9.70;97.00;100183.97;5005936;28;20049;-72
2022/12/23 05:37:13;;;;;;;5.82;1.50;;;;;;;9.65;96.71;100184.88;5025397;28;20073;-72
2022/12/23 05:39:38;;;;;;;6.25;1.40;;;;;;;9.59;97.02;100178.94;5023617;28;20109;-72
2022/12/23 05:42:04;;;;;;;6.57;1.60;;;;;;;9.48;96.92;100185.94;5023182;28;20029;-72
2022/12/23 05:44:30;;;;;;;5.25;1.70;;;;;;;9.36;96.75;100183.53;5018747;28;20710;-72
2022/12/23 05:46:55;;;;;;;4.47;1.55;;;;;;;9.29;97.86;100190.47;5022231;28;20115;-72
2022/12/23 05:49:21;;;;;;;4.50;1.67;;;;;;;9.32;98.16;100193.03;5018088;28;20038;-72
2022/12/23 05:51:47;;;;;;;4.10;1.50;;;;;;;9.38;98.64;100200.69;5021434;28;20060;-72
2022/12/23 05:54:12;;;;;;;6.53;1.70;;;;;;;9.40;98.37;100204.13;5020794;28;20393;-72
2022/12/23 05:56:38;;;;;;;8.45;3.17;;;;;;;9.44;98.90;100208.34;5020261;28;20042;-72
2022/12/23 05:59:03;;;;;;;6.05;2.05;;;;;;;9.51;97.48;100212.56;5023423;28;20056;-72
2022/12/23 06:01:28;;;;;;;7.15;2.50;;;;;;;9.54;98.39;100222.84;5017812;28;20043;-72
2022/12/23 06:03:54;;;;;;;10.82;3.58;;;;;;;9.59;97.04;100223.66;5026814;28;20053;-72
2022/12/23 06:06:19;;;;;;;6.35;2.00;;;;;;;9.67;97.15;100219.25;5026435;28;20112;-72
2022/12/23 06:08:45;;;;;;;12.18;3.67;;;;;;;9.67;96.17;100223.59;5022551;28;20181;-73
2022/12/23 06:11:11;;;;;;;3.33;2.03;;;;;;;9.67;96.22;100228.75;5024366;28;20029;-72
2022/12/23 06:13:37;;;;;;;7.22;1.60;;;;;;;9.67;96.54;100234.72;5022633;28;20038;-72
2022/12/23 06:16:03;;;;;;;5.82;2.00;;;;;;;9.67;96.40;100234.72;5026599;28;20728;-73
2022/12/23 06:18:28;;;;;;;5.78;1.60;;;;;;;9.68;96.51;100233.00;5030315;28;20037;-73
2022/12/23 06:20:53;;;;;;;5.43;1.17;;;;;;;9.65;97.22;100231.31;5027042;28;20112;-73
2022/12/23 06:23:19;;;;;;;4.53;1.52;;;;;;;9.65;96.32;100238.22;5029644;28;20044;-72
2022/12/23 06:25:44;;;;;;;3.65;1.10;;;;;;;9.61;96.91;100229.66;5035301;28;20037;-73
2022/12/23 06:28:10;;;;;;;2.72;1.10;;;;;;;9.56;96.33;100233.13;5033646;28;20084;-73
2022/12/23 06:30:35;;;;;;;10.43;1.65;;;;;;;9.53;96.98;100228.88;5026810;28;20041;-73
2022/12/23 06:33:01;;;;;;;3.15;1.35;;;;;;;9.54;96.57;100228.00;5029252;28;20037;-73
2022/12/23 06:35:26;;;;;;;2.72;1.52;;;;;;;9.54;95.95;100220.28;5029019;28;20143;-73
2022/12/23 06:37:52;;;;;;;5.50;1.40;;;;;;;9.57;97.36;100221.94;5031457;28;20664;-73
2022/12/23 06:40:18;;;;;;;4.15;1.35;;;;;;;9.61;97.14;100215.94;5026697;28;20556;-74
2022/12/23 06:42:44;;;;;;;8.82;1.75;;;;;;;9.60;96.76;100214.22;5028488;28;20037;-73
2022/12/23 06:45:09;;;;;;;2.22;1.20;;;;;;;9.58;97.53;100215.97;5023859;28;20072;-73
2022/12/23 06:47:36;;;;;;;3.97;1.25;;;;;;;9.57;97.51;100216.78;5029896;28;20772;-72
2022/12/23 06:50:02;;;;;;;3.80;1.15;;;;;;;9.59;98.24;100220.22;5023693;28;20038;-73
2022/12/23 06:52:27;;;;;;;8.05;1.58;;;;;;;9.60;98.13;100220.22;5030744;28;20459;-73
2022/12/23 06:54:53;;;;;;;6.43;1.73;;;;;;;9.61;98.87;100216.75;5029429;28;20052;-72
2022/12/23 06:57:18;;;;;;;6.68;1.77;;;;;;;9.62;99.00;100215.03;5024793;28;20065;-72
2022/12/23 06:59:43;;;;;;;5.15;1.83;;;;;;;9.61;99.09;100215.94;5028790;28;20581;-72
2022/12/23 07:02:10;;;;;;;6.50;1.75;;;;;;;9.61;100.00;100214.16;5025765;28;20045;-73
2022/12/23 07:04:36;;;;;;;5.63;1.77;;;;;;;9.62;100.00;100210.72;5024437;28;20092;-73
2022/12/23 07:07:01;;;;;;;7.53;1.65;;;;;;;9.63;100.00;100209.00;5028086;28;20402;-73
2022/12/23 07:09:27;;;;;;;6.05;1.70;;;;;;;9.63;100.00;100211.59;5027947;28;20038;-72
2022/12/23 07:11:52;;;;;;;5.18;1.60;;;;;;;9.66;100.00;100222.72;5023545;28;20029;-73
2022/12/23 07:14:18;;;;;;;6.25;1.88;;;;;;;9.68;100.00;100238.16;5024692;28;20055;-73
2022/12/23 07:16:44;;;;;;;5.60;1.83;;;;;;;9.71;100.00;100242.44;5022966;28;20136;-73
2022/12/23 07:19:10;;;;;;;5.25;1.60;;;;;;;9.75;100.00;100254.44;5027186;28;20473;-72
2022/12/23 07:21:37;;;;;;;3.50;1.63;;;;;;;9.78;100.00;100260.41;5033531;28;20021;-73
2022/12/23 07:24:03;;;;;;;4.55;1.83;;;;;;;9.79;100.00;100262.13;5047373;28;20075;-73
2022/12/23 07:26:28;;;;;;;7.30;1.70;;;;;;;9.79;100.00;100267.28;5032210;28;20665;-74
2022/12/23 07:28:54;;;;;;;4.57;1.30;;;;;;;9.80;100.00;100268.97;5029585;28;20086;-73
2022/12/23 07:31:19;;;;;;;6.35;1.25;;;;;;;9.80;100.00;100273.28;5037506;28;20036;-73
2022/12/23 07:33:45;;;;;;;2.90;1.35;;;;;;;9.79;100.00;100269.88;5025594;28;20663;-73
2022/12/23 07:36:10;;;;;;;6.00;1.40;;;;;;;9.76;100.00;100269.91;5018517;28;20132;-73
2022/12/23 07:38:36;;;;;;;5.97;1.67;;;;;;;9.72;100.00;100270.81;5022500;28;20620;-73
2022/12/23 07:41:01;;;;;;;3.22;1.30;;;;;;;9.71;100.00;100271.69;5022393;28;20048;-73
2022/12/23 07:43:27;;;;;;;4.07;1.77;;;;;;;9.73;100.00;100276.84;5013812;28;20128;-73
2022/12/23 07:45:52;;;;;;;5.82;1.63;;;;;;;9.73;100.00;100275.13;5026265;28;20045;-73
2022/12/23 07:48:17;;;;;;;4.53;1.65;;;;;;;9.78;100.00;100267.31;5025248;28;20064;-73
2022/12/23 07:50:43;;;;;;;5.78;2.33;;;;;;;9.82;100.00;100279.31;5021614;28;20047;-72
2022/12/23 07:53:08;;;;;;;5.82;2.45;;;;;;;9.82;100.00;100280.16;5020004;28;20124;-72
2022/12/23 07:55:34;;;;;;;3.83;1.70;;;;;;;9.83;100.00;100287.00;5024647;28;20574;-73
2022/12/23 07:58:00;;;;;;;5.10;1.90;;;;;;;9.86;100.00;100278.38;5027757;28;20029;-72
2022/12/23 08:00:25;;;;;;;3.65;1.48;;;;;;;9.86;100.00;100284.38;5027531;28;20032;-72
2022/12/23 08:02:51;;;;;;;6.60;2.38;;;;;;;9.87;100.00;100283.53;5029871;28;20028;-72
2022/12/23 08:05:17;;;;;;;8.00;2.22;;;;;;;9.88;100.00;100285.22;5023956;28;20472;-73
2022/12/23 08:07:48;;;;;;;7.00;1.90;;;;;;;9.88;100.00;100285.22;5026730;28;20038;-74
2022/12/23 08:10:13;;;;;;;4.40;1.63;;;;;;;9.90;100.00;100277.47;5027415;28;20040;-74
2022/12/23 08:12:39;;;;;;;5.28;1.73;;;;;;;9.91;100.00;100274.84;5023124;28;20037;-73
2022/12/23 08:15:05;;;;;;;6.22;2.38;;;;;;;9.91;100.00;100289.50;5023546;28;20041;-74
2022/12/23 08:17:31;;;;;;;5.65;2.03;;;;;;;9.95;100.00;100284.28;5021143;28;20057;-74
2022/12/23 08:19:56;;;;;;;10.50;1.80;;;;;;;9.97;100.00;100285.09;5022101;28;20037;-74
2022/12/23 08:22:22;;;;;;;5.45;2.33;;;;;;;9.96;100.00;100280.81;5019120;28;20088;-74
2022/12/23 08:24:49;;;;;;;2.70;1.40;;;;;;;9.96;100.00;100273.09;5019822;28;20045;-74
2022/12/23 08:27:15;;;;;;;7.40;1.88;;;;;;;9.98;100.00;100266.16;5020174;28;20060;-74
2022/12/23 08:29:41;;;;;;;2.08;1.50;;;;;;;9.99;100.00;100267.88;5022514;28;20648;-74
2022/12/23 08:32:07;;;;;;;3.10;1.90;;;;;;;10.00;100.00;100261.00;5024021;28;20573;-74
2022/12/23 08:34:33;;;;;;;5.82;1.90;;;;;;;10.00;100.00;100255.81;5029154;28;20147;-73
2022/12/23 08:36:58;;;;;;;2.80;1.60;;;;;;;10.01;100.00;100244.59;5022526;28;20044;-73
2022/12/23 08:39:24;;;;;;;4.88;1.98;;;;;;;10.01;100.00;100250.63;5025991;28;20394;-74
2022/12/23 08:41:49;;;;;;;6.32;1.70;;;;;;;10.05;100.00;100251.44;5025298;28;20029;-74
2022/12/23 08:44:15;;;;;;;5.43;2.20;;;;;;;10.07;100.00;100260.88;5022581;28;20037;-74
2022/12/23 08:46:41;;;;;;;6.22;1.90;;;;;;;10.10;100.00;100254.78;5026571;28;20711;-74
2022/12/23 08:49:08;;;;;;;3.67;2.03;;;;;;;10.13;100.00;100257.34;5030616;28;20033;-73
2022/12/23 08:51:35;;;;;;;5.80;2.05;;;;;;;10.16;100.00;100262.47;5030985;28;20025;-72
2022/12/23 08:54:00;;;;;;;2.33;1.40;;;;;;;10.17;100.00;100256.44;5021824;28;20021;-73
2022/12/23 08:56:29;;;;;;;6.35;1.50;;;;;;;10.19;100.00;100252.09;5031870;28;20048;-72
2022/12/23 08:58:55;;;;;;;2.13;1.52;;;;;;;10.20;100.00;100251.22;5026080;28;20025;-73
2022/12/23 09:01:23;;;;;;;5.30;2.13;;;;;;;10.18;100.00;100256.38;5021814;28;20463;-73
2022/12/23 09:03:50;;;;;;;3.67;2.75;;;;;;;10.19;100.00;100246.91;5026116;28;20052;-72
2022/12/23 09:06:24;;;;;;;9.90;4.80;;;;;;;10.18;100.00;100252.94;5027313;28;20041;-72
2022/12/23 09:08:49;;;;;;;10.40;5.68;;;;;;;10.19;100.00;100265.00;5027487;28;20029;-72
2022/12/23 09:11:18;;;;;;;7.30;4.90;;;;;;;10.19;100.00;100268.44;5025856;28;20426;-72
2022/12/23 09:13:44;;;;;;;5.30;3.70;;;;;;;10.20;100.00;100246.06;5025935;28;20053;-72
2022/12/23 09:16:11;;;;;;;5.03;3.58;;;;;;;10.21;100.00;100246.00;5032815;28;20487;-74
2022/12/23 09:18:36;;;;;;;8.57;4.10;;;;;;;10.24;100.00;100252.84;5025849;28;20425;-74
2022/12/23 09:21:05;;;;;;;7.97;4.07;;;;;;;10.25;100.00;100259.72;5027753;28;20083;-74
2022/12/23 09:23:30;;;;;;;11.05;4.60;;;;;;;10.26;100.00;100251.13;5018871;28;20046;-74
2022/12/23 09:25:56;;;;;;;8.77;4.30;;;;;;;10.25;100.00;100249.41;5025450;28;20040;-74
2022/12/23 09:28:22;;;;;;;6.90;3.65;;;;;;;10.22;100.00;100239.97;5026393;28;20567;-74
2022/12/23 09:30:48;;;;;;;10.63;3.85;;;;;;;10.20;100.00;100236.56;5026747;28;20407;-74
2022/12/23 09:33:14;;;;;;;14.00;4.45;;;;;;;10.16;100.00;100229.75;5030660;28;20033;-74
2022/12/23 09:35:40;;;;;;;7.38;3.55;;;;;;;10.14;100.00;100231.50;5024683;28;20735;-74
2022/12/23 09:38:05;;;;;;;8.63;3.60;;;;;;;10.14;100.00;100233.22;5032457;28;20037;-73
2022/12/23 09:40:35;;;;;;;9.43;4.18;;;;;;;10.11;100.00;100231.56;5035448;28;20087;-72
2022/12/23 09:43:48;;;;;;;9.82;3.60;;;;;;;10.10;100.00;100219.50;5031628;28;20056;-73
2022/12/23 09:46:22;;;;;;;17.48;9.00;;;;;;;10.07;100.00;100219.56;5029204;28;20103;-73
2022/12/23 09:48:59;;;;;;;10.23;7.03;;;;;;;10.05;100.00;100221.31;5026477;28;20124;-73
2022/12/23 09:51:26;;;;;;;6.30;5.10;;;;;;;10.02;100.00;100213.59;5030551;28;20033;-72
2022/12/23 09:54:00;;;;;;;8.27;4.70;;;;;;;10.00;100.00;100212.75;5032943;28;20553;-73
2022/12/23 09:57:03;;;;;;;10.18;4.43;;;;;;;9.97;100.00;100202.47;5025160;28;20057;-72
2022/12/23 09:59:32;;;;;;;9.70;4.63;;;;;;;9.96;100.00;100187.03;5032893;28;20574;-71
2022/12/23 10:02:36;;;;;;;15.55;4.55;;;;;;;9.92;100.00;100181.03;5029979;28;20132;-72
2022/12/23 10:05:19;;;;;;;13.60;4.90;;;;;;;9.92;100.00;100188.78;4978905;28;20776;-66
2022/12/23 10:07:50;;;;;;;13.75;4.50;;;;;;;9.93;100.00;100198.25;5028026;28;20639;-67
2022/12/23 10:10:20;;;;;;;9.57;4.25;;;;;;;9.94;100.00;100202.53;5030278;28;20498;-67
2022/12/23 10:12:49;;;;;;;9.43;4.53;;;;;;;9.94;100.00;100194.78;5035951;28;20050;-66
2022/12/23 10:15:24;;;;;;;7.65;3.40;;;;;;;9.95;100.00;100188.75;5027837;28;20654;-66
2022/12/23 10:17:54;;;;;;;12.25;3.97;;;;;;;9.99;100.00;100177.50;5027802;28;20143;-66
2022/12/23 10:20:33;;;;;;;7.18;2.95;;;;;;;10.00;100.00;100173.22;5024017;28;20026;-66
2022/12/23 10:22:59;;;;;;;7.53;3.63;;;;;;;10.01;99.88;100168.00;5023083;28;20034;-66
2022/12/23 10:25:38;;;;;;;9.70;3.92;;;;;;;10.02;100.00;100153.38;5025571;28;20464;-66
2022/12/23 10:28:03;;;;;;;7.18;2.85;;;;;;;10.00;99.27;100150.78;5027672;28;20037;-66
2022/12/23 10:30:33;;;;;;;7.65;2.92;;;;;;;10.01;99.37;100152.50;5030168;28;20048;-67
2022/12/23 10:33:07;;;;;;;6.80;2.92;;;;;;;10.01;98.34;100137.03;5038061;28;20060;-66
2022/12/23 10:35:56;;;;;;;5.07;2.88;;;;;;;10.02;99.26;100136.16;5033489;28;20034;-66
2022/12/23 10:38:58;;;;;;;7.63;2.70;;;;;;;9.98;98.72;100126.75;5026022;28;20119;-67
2022/12/23 10:42:01;;;;;;;5.72;2.85;;;;;;;9.97;97.67;100114.69;5030744;28;20026;-67
2022/12/23 10:44:36;;;;;;;7.28;3.40;;;;;;;9.92;96.98;100111.34;5028729;28;20029;-68
2022/12/23 10:47:13;;;;;;;10.05;4.50;;;;;;;9.90;97.50;100105.38;5017978;28;20564;-67
2022/12/23 10:50:13;;;;;;;4.50;3.20;;;;;;;9.91;97.35;100103.66;5029587;28;20659;-68
2022/12/23 10:52:42;;;;;;;7.57;6.05;;;;;;;9.90;96.90;100099.34;5029448;28;20132;-68
2022/12/23 10:55:26;;;;;;;8.30;6.55;;;;;;;9.93;97.36;100096.72;5026158;28;20067;-68
2022/12/23 10:57:55;;;;;;;6.60;5.45;;;;;;;9.95;97.65;100094.94;5024914;28;20520;-68
2022/12/23 11:00:22;;;;;;;8.68;4.45;;;;;;;9.96;97.13;100094.94;5031888;28;20356;-67
2022/12/23 11:03:22;;;;;;;13.65;4.43;;;;;;;9.97;97.76;100095.81;5032791;28;20481;-68
2022/12/23 11:05:49;;;;;;;7.25;3.63;;;;;;;9.95;96.87;100089.78;5018536;28;20046;-67
2022/12/23 11:08:15;;;;;;;4.85;3.15;;;;;;;9.96;97.23;100089.78;5029655;28;20521;-68
2022/12/23 11:10:41;;;;;;;6.50;3.67;;;;;;;9.95;97.01;100088.06;5035179;28;20053;-68
2022/12/23 11:13:06;;;;;;;6.55;3.35;;;;;;;9.96;97.08;100086.34;5030065;28;20059;-67
2022/12/23 11:15:39;;;;;;;6.38;3.58;;;;;;;9.99;97.68;100083.72;5022516;28;20518;-67
2022/12/23 11:18:11;;;;;;;5.63;3.25;;;;;;;9.99;97.30;100081.13;5027333;28;20052;-67
2022/12/23 11:20:37;;;;;;;7.45;2.83;;;;;;;9.99;97.60;100074.25;5031481;28;20133;-67
2022/12/23 11:23:05;;;;;;;5.63;3.65;;;;;;;9.99;98.13;100068.22;5026854;28;20042;-68
2022/12/23 11:25:35;;;;;;;8.38;3.97;;;;;;;9.96;98.18;100063.97;5018383;28;21086;-67
2022/12/23 11:28:10;;;;;;;6.93;3.22;;;;;;;9.95;98.29;100066.56;5028608;28;20041;-68
2022/12/23 11:31:04;;;;;;;4.43;3.40;;;;;;;9.93;98.23;100052.84;5024445;28;20041;-66
2022/12/23 11:34:00;;;;;;;5.13;3.60;;;;;;;9.92;98.86;100041.66;5026380;28;20033;-67
2022/12/23 11:36:27;;;;;;;6.72;3.65;;;;;;;9.91;99.68;100044.28;5025134;28;20363;-66
2022/12/23 11:39:05;;;;;;;11.50;6.22;;;;;;;9.89;99.42;100036.53;5035019;28;20032;-66
2022/12/23 11:41:52;;;;;;;15.02;6.13;;;;;;;9.88;100.00;100036.59;5029444;28;20048;-65
2022/12/23 11:44:27;;;;;;;22.52;11.00;;;;;;;9.87;100.00;100029.72;5021675;28;20033;-65
2022/12/23 11:46:53;;;;;;;16.15;7.25;;;;;;;9.88;100.00;100024.50;5026403;28;20045;-65
2022/12/23 11:49:23;;;;;;;27.20;11.73;;;;;;;9.93;100.00;100024.44;5025808;28;20202;-65
2022/12/23 11:52:00;;;;;;;19.85;5.82;;;;;;;9.96;100.00;100022.66;5041608;28;20398;-65
2022/12/23 11:54:26;;;;;;;12.32;4.35;;;;;;;9.99;100.00;100014.84;5019733;28;20101;-66
2022/12/23 11:56:53;;;;;;;12.77;3.50;;;;;;;10.01;100.00;100009.66;5029176;28;20029;-65
2022/12/23 11:59:31;;;;;;;9.10;3.20;;;;;;;9.99;100.00;99994.22;5030237;28;20458;-66
2022/12/23 12:02:00;;;;;;;8.88;2.97;;;;;;;9.95;100.00;99978.78;5026637;28;20037;-65
2022/12/23 12:04:29;;;;;;;7.95;2.60;;;;;;;9.95;100.00;99960.72;5030482;28;20037;-66